Grass Valley, Oregon
Current Conditions -  °F | °C
As of 5:53 AM on Wednesday 28 Jan 2015 (Local Time) from KDLS Reporting Station
Clear Clear  
Wind Chill: 39°   Ceiling: Unl
Heat Index: 42°   Visibility: 10mi
Dew Point: 39°   Wind: 5mph
Humidity: 89%   Direction: 100°E
Pressure: 30.31"   Gusts: NA
Location:  45.36°N, 120.79°W
Report Text: KDLS 281353Z AUTO 10004KT 10SM CLR 06/04 A3031 RMK AO2 SLP265 T00560039
Loading
Personal Weather Stations






























Interactive Weather Map New forecast layout! Learn more

10-Day Weather Forecast

Advertisements
Track Severe Weather on mobile